»·PEaware :: UAL350 KSFO-KSNA

UAL350 :: KSFO-KSNA

FLIGHT INFORMATION

Flight Status: Arrived
Operator:
United Airlines
More flights by this operator :: More flights under this callsign
Pilot: Jeff H. (11722)
Aircraft: Unknown
(B727)
More flights by this aircraft type
Origin: KSFO San Francisco Intl
United States
Destination: KSNA John Wayne-Orange Co
United States
More flights between these airports :: More routes between these airports
Route: +OFFSH1 MCKEY DAISY BENET SCX
File this flight plan on PilotEdge
Remarks:
Altitude:
(Current/Filed)
290ft
Speed:
(Current/Filed)
0kts
Departed: 23-Dec-17 08:16 PM
Arrived: 23-Dec-17 09:20 PM
Distance/Time
Traveled:
323nm/1:04
Distance/Time
To Go:
Arrived

Flight Plot

Page will automatically refresh every two minutes.

Flight plan parsing failed; only flown route is shown


Map Options




Map Legend


Flown Route
Filed Route
Departure Airport
Arrival Airport
Navaid (VOR, NDB)
Fix

Horizontal Profiles

Position Reports

Time Latitude Longitude Heading Altitude Ground
Speed
23-Dec-17 20:06 37.621133 -122.390792 120 25ft 0kts
23-Dec-17 20:07 37.621133 -122.390792 120 25ft 0kts
23-Dec-17 20:08 37.621133 -122.390792 120 25ft 0kts
23-Dec-17 20:09 37.621133 -122.390792 120 25ft 0kts
23-Dec-17 20:10 37.621133 -122.390792 120 25ft 0kts
23-Dec-17 20:11 37.621133 -122.390792 120 25ft 0kts
23-Dec-17 20:12 37.621133 -122.390792 120 25ft 0kts
23-Dec-17 20:13 37.621133 -122.390792 120 25ft 0kts
23-Dec-17 20:14 37.621133 -122.390792 120 25ft 0kts
23-Dec-17 20:15 37.621133 -122.390792 120 25ft 0kts
23-Dec-17 20:16 37.621197 -122.391422 54 25ft 0kts
23-Dec-17 20:17 37.621197 -122.391422 54 25ft 0kts
23-Dec-17 20:18 37.623057 -122.388407 117 25ft 10kts
23-Dec-17 20:19 37.620613 -122.382517 117 25ft 26kts
23-Dec-17 20:20 37.615045 -122.379770 208 25ft 25kts
23-Dec-17 20:21 37.608921 -122.383276 138 25ft 15kts
23-Dec-17 20:22 37.634352 -122.366622 23 1139ft 209kts
23-Dec-17 20:23 37.687282 -122.376441 296 3974ft 246kts
23-Dec-17 20:24 37.661638 -122.446272 231 6549ft 252kts
23-Dec-17 20:25 37.623238 -122.522387 243 8632ft 270kts
23-Dec-17 20:26 37.587262 -122.609742 245 10574ft 292kts
23-Dec-17 20:27 37.540963 -122.700469 212 12729ft 335kts
23-Dec-17 20:28 37.446659 -122.698411 171 15152ft 360kts
23-Dec-17 20:29 37.348316 -122.672973 171 17488ft 371kts
23-Dec-17 20:30 37.244468 -122.645672 172 19741ft 394kts
23-Dec-17 20:31 37.135110 -122.616981 172 21846ft 412kts
23-Dec-17 20:32 37.023180 -122.587722 172 23990ft 419kts
23-Dec-17 20:33 36.911233 -122.558566 173 26069ft 421kts
23-Dec-17 20:34 36.800411 -122.529761 173 27984ft 420kts
23-Dec-17 20:35 36.688132 -122.500701 173 29242ft 430kts
23-Dec-17 20:36 36.570034 -122.470203 173 29254ft 452kts
23-Dec-17 20:37 36.446425 -122.436160 163 29232ft 479kts
23-Dec-17 20:38 36.346998 -122.321944 132 29246ft 506kts
23-Dec-17 20:39 36.255716 -122.188942 131 29242ft 517kts
23-Dec-17 20:40 36.164070 -122.055872 131 29242ft 523kts
23-Dec-17 20:41 36.070509 -121.920562 131 29243ft 527kts
23-Dec-17 20:42 35.975592 -121.783218 132 29235ft 527kts
23-Dec-17 20:43 35.880361 -121.646588 132 29236ft 527kts
23-Dec-17 20:44 35.785485 -121.511028 132 29233ft 528kts
23-Dec-17 20:45 35.689636 -121.374626 132 29231ft 528kts
23-Dec-17 20:46 35.593370 -121.238179 132 29233ft 529kts
23-Dec-17 20:47 35.496903 -121.102182 133 29231ft 529kts
23-Dec-17 20:48 35.383475 -121.004591 149 29223ft 525kts
23-Dec-17 20:49 35.267211 -120.912900 149 29223ft 527kts
23-Dec-17 20:50 35.151095 -120.821206 149 29215ft 528kts
23-Dec-17 20:51 35.029921 -120.726330 149 29217ft 528kts
23-Dec-17 20:52 34.909117 -120.632113 149 29227ft 527kts
23-Dec-17 20:53 34.786853 -120.537054 149 29232ft 525kts
23-Dec-17 20:54 34.668147 -120.445101 149 28768ft 508kts
23-Dec-17 20:55 34.555501 -120.358152 149 26643ft 483kts
23-Dec-17 20:56 34.445829 -120.273761 149 24515ft 461kts
23-Dec-17 20:57 34.338504 -120.191429 149 24225ft 463kts
23-Dec-17 20:58 34.240614 -120.091329 123 24230ft 473kts
23-Dec-17 20:59 34.170870 -119.956260 120 24186ft 475kts
23-Dec-17 21:00 34.106039 -119.828087 121 22303ft 448kts
23-Dec-17 21:01 34.044872 -119.707972 121 20346ft 428kts
23-Dec-17 21:02 33.985380 -119.591644 121 18416ft 411kts
23-Dec-17 21:03 33.926650 -119.477176 121 16496ft 396kts
23-Dec-17 21:04 33.869924 -119.366957 121 14635ft 383kts
23-Dec-17 21:05 33.815494 -119.261518 121 12845ft 370kts
23-Dec-17 21:06 33.762135 -119.158466 121 11098ft 358kts
23-Dec-17 21:07 33.711238 -119.060417 121 10987ft 337kts
23-Dec-17 21:08 33.662991 -118.967744 120 10987ft 319kts
23-Dec-17 21:09 33.617578 -118.880531 120 10989ft 303kts
23-Dec-17 21:10 33.572630 -118.794812 121 11002ft 312kts
23-Dec-17 21:11 33.563539 -118.701988 82 10027ft 289kts
23-Dec-17 21:12 33.570995 -118.606844 81 8605ft 287kts
23-Dec-17 21:13 33.579060 -118.512387 81 7248ft 285kts
23-Dec-17 21:14 33.586245 -118.435045 81 6993ft 278kts
23-Dec-17 21:15 33.596661 -118.330234 81 6872ft 272kts
23-Dec-17 21:16 33.606219 -118.239433 81 5498ft 276kts
23-Dec-17 21:17 33.613909 -118.163546 81 4986ft 274kts
23-Dec-17 21:18 33.624362 -118.059408 81 4976ft 259kts
23-Dec-17 21:19 33.631010 -117.993771 79 4974ft 242kts
23-Dec-17 21:20 33.667847 -117.940128 21 4205ft 226kts
23-Dec-17 21:21 33.723459 -117.911937 22 3318ft 214kts
23-Dec-17 21:22 33.774169 -117.886436 25 2979ft 196kts
23-Dec-17 21:23 33.768385 -117.838481 167 2243ft 205kts
23-Dec-17 21:24 33.720070 -117.843650 198 1450ft 125kts
23-Dec-17 21:25 33.690472 -117.859509 207 346ft 112kts
23-Dec-17 21:26 33.671299 -117.871642 207 68ft 24kts
23-Dec-17 21:27 33.669381 -117.871867 130 68ft 1kts
23-Dec-17 21:28 33.671460 -117.868598 37 68ft 18kts
23-Dec-17 21:29 33.676619 -117.864796 26 68ft 27kts
23-Dec-17 21:30 33.679894 -117.862544 113 68ft 4kts
23-Dec-17 21:31 33.679750 -117.862216 118 68ft 0kts

Navigation Log

Ident Type
Flight plan parsing failed, navigation log unavailable